Tuesday, May 22, 2018, 5:47 AM GMT
Back to Local

CYTR, Trenton, Ont.

Location: , , Canada Lat: 44.117
Local Time: 5:47 AM GMT ( 5:47 GMT) Lon: -77.533
Time Zone: GMT Elev: 278 ft

Show me the last for .
Show Decoded

2018-05-22 05:00 METAR CYTR 220500Z 22006KT 15SM OVC110 15/09 A3013 RMK AC8 SLP206 =
2018-05-22 04:00 METAR CYTR 220400Z 04004KT 15SM OVC140 13/08 A3013 RMK AS8 SLP206 =
2018-05-22 03:00 METAR CYTR 220300Z 00000KT 15SM OVC150 14/08 A3012 RMK AS8 MOON DIMLY VISBL
                 SLP201 =
2018-05-22 02:00 METAR CYTR 220200Z 00000KT 15SM BKN150 BKN250 15/07 A3012 RMK AC6CI1 SLP200 =
2018-05-22 01:00 METAR CYTR 220100Z 24003KT 15SM FEW150 BKN250 17/06 A3012 RMK AS2CI5 SLP201 =
2018-05-22 00:00 METAR CYTR 220000Z 23006KT 15SM SCT160 OVC250 19/05 A3011 RMK AS4CI4 SLP200 =
2018-05-21 23:00 METAR CYTR 212300Z 23007KT 15SM SCT180 OVC250 20/04 A3012 RMK AS4CI4 SLP200 =
2018-05-21 22:00 METAR CYTR 212200Z 22009KT 15SM SCT180 BKN250 20/03 A3014 RMK AS4CI3 SLP207 =
2018-05-21 21:00 METAR CYTR 212100Z 21010KT 15SM BKN250 20/04 A3015 RMK CI6 CONTRAILS SLP211 =
2018-05-21 20:00 METAR CYTR 212000Z 21009KT 15SM BKN250 19/07 A3016 RMK CI5 SLP214 =
2018-05-21 19:00 METAR CYTR 211900Z 20009G15KT 15SM FEW250 18/07 A3018 RMK CI2 SLP220 =
2018-05-21 18:00 METAR CYTR 211800Z 21011KT 15SM BKN250 17/06 A3019 RMK CI7 SLP226 =
2018-05-21 17:00 METAR CYTR 211700Z 20011KT 15SM BKN250 16/08 A3022 RMK CI7 SLP234 =
2018-05-21 16:00 METAR CYTR 211600Z 20010KT 15SM BKN250 16/08 A3023 RMK CI6 SLP237 =
2018-05-21 15:00 METAR CYTR 211500Z 21008KT 15SM BKN250 16/08 A3023 RMK CI6 SLP238 =
2018-05-21 14:00 METAR CYTR 211400Z 20005KT 15SM SCT250 16/08 A3022 RMK CI3 SLP236 =
2018-05-21 13:00 METAR CYTR 211300Z 21004KT 15SM FEW250 14/07 A3023 RMK CI2 SLP238 =
2018-05-21 12:00 METAR CYTR 211200Z 36003KT 15SM FEW250 12/06 A3022 RMK CI2 SLP236 =
2018-05-21 11:00 METAR CYTR 211100Z 30002KT 15SM FEW250 10/05 A3021 RMK CI2 SLP233 =
2018-05-21 10:00 METAR CYTR 211000Z 32006KT 15SM FEW250 08/05 A3019 RMK CI1 SLP225 =
2018-05-21 09:00 METAR CYTR 210900Z 32009KT 15SM SKC 09/05 A3017 RMK SLP218 =
2018-05-21 08:00 METAR CYTR 210800Z 33012KT 15SM SKC 10/06 A3016 RMK SLP215 =
2018-05-21 07:00 METAR CYTR 210700Z 32004KT 15SM SKC 10/06 A3015 RMK SLP212 =
2018-05-21 06:00 METAR CYTR 210600Z 33007KT 15SM FEW250 11/07 A3014 RMK CI2 SLP209 =

Support USWX by starting your Amazon purchase here.